sensor_id;sensor_type;location;lat;lon;timestamp;P1;durP1;ratioP1;P2;durP2;ratioP2
55641;SDS011;41509;53.108;6.100;2024-03-02T00:00:51;4.47;;;1.87;;
55641;SDS011;41509;53.108;6.100;2024-03-02T00:03:18;2.92;;;1.52;;
55641;SDS011;41509;53.108;6.100;2024-03-02T00:05:48;3.55;;;1.60;;
55641;SDS011;41509;53.108;6.100;2024-03-02T00:08:16;3.72;;;1.77;;
55641;SDS011;41509;53.108;6.100;2024-03-02T00:11:00;3.83;;;1.75;;
55641;SDS011;41509;53.108;6.100;2024-03-02T00:13:28;3.25;;;1.65;;
55641;SDS011;41509;53.108;6.100;2024-03-02T00:15:57;4.38;;;1.90;;
55641;SDS011;41509;53.108;6.100;2024-03-02T00:18:30;5.40;;;1.85;;
55641;SDS011;41509;53.108;6.100;2024-03-02T00:20:57;3.83;;;1.90;;
55641;SDS011;41509;53.108;6.100;2024-03-02T00:25:54;4.90;;;1.65;;
55641;SDS011;41509;53.108;6.100;2024-03-02T00:28:24;3.80;;;1.92;;
55641;SDS011;41509;53.108;6.100;2024-03-02T00:33:31;4.28;;;2.00;;
55641;SDS011;41509;53.108;6.100;2024-03-02T00:36:02;2.78;;;1.65;;
55641;SDS011;41509;53.108;6.100;2024-03-02T00:38:30;4.63;;;1.83;;
55641;SDS011;41509;53.108;6.100;2024-03-02T00:41:05;4.18;;;1.90;;
55641;SDS011;41509;53.108;6.100;2024-03-02T00:46:09;4.97;;;1.77;;
55641;SDS011;41509;53.108;6.100;2024-03-02T00:48:56;3.63;;;1.60;;
55641;SDS011;41509;53.108;6.100;2024-03-02T00:51:26;5.55;;;1.88;;
55641;SDS011;41509;53.108;6.100;2024-03-02T00:53:53;2.70;;;1.63;;
55641;SDS011;41509;53.108;6.100;2024-03-02T00:56:22;3.63;;;1.98;;
55641;SDS011;41509;53.108;6.100;2024-03-02T00:58:51;2.47;;;1.65;;
55641;SDS011;41509;53.108;6.100;2024-03-02T01:01:18;7.07;;;1.80;;
55641;SDS011;41509;53.108;6.100;2024-03-02T01:03:50;3.83;;;1.90;;
55641;SDS011;41509;53.108;6.100;2024-03-02T01:06:16;3.28;;;1.80;;
55641;SDS011;41509;53.108;6.100;2024-03-02T01:08:42;3.88;;;1.98;;
55641;SDS011;41509;53.108;6.100;2024-03-02T01:11:08;7.53;;;1.95;;
55641;SDS011;41509;53.108;6.100;2024-03-02T01:13:34;3.42;;;1.30;;
55641;SDS011;41509;53.108;6.100;2024-03-02T01:16:01;3.00;;;1.52;;
55641;SDS011;41509;53.108;6.100;2024-03-02T01:18:27;2.67;;;1.48;;
55641;SDS011;41509;53.108;6.100;2024-03-02T01:20:54;3.80;;;2.15;;
55641;SDS011;41509;53.108;6.100;2024-03-02T01:23:23;4.70;;;1.45;;
55641;SDS011;41509;53.108;6.100;2024-03-02T01:25:52;3.47;;;1.30;;
55641;SDS011;41509;53.108;6.100;2024-03-02T01:28:18;3.88;;;1.75;;
55641;SDS011;41509;53.108;6.100;2024-03-02T01:30:46;2.78;;;1.38;;
55641;SDS011;41509;53.108;6.100;2024-03-02T01:35:52;3.45;;;1.50;;
55641;SDS011;41509;53.108;6.100;2024-03-02T01:38:24;3.17;;;1.75;;
55641;SDS011;41509;53.108;6.100;2024-03-02T01:40:51;2.75;;;1.30;;
55641;SDS011;41509;53.108;6.100;2024-03-02T01:43:17;4.95;;;1.27;;
55641;SDS011;41509;53.108;6.100;2024-03-02T01:45:43;2.25;;;1.25;;
55641;SDS011;41509;53.108;6.100;2024-03-02T01:48:09;2.60;;;1.40;;
55641;SDS011;41509;53.108;6.100;2024-03-02T01:50:35;3.75;;;1.73;;
55641;SDS011;41509;53.108;6.100;2024-03-02T01:55:28;3.95;;;1.73;;
55641;SDS011;41509;53.108;6.100;2024-03-02T01:57:55;3.70;;;1.08;;
55641;SDS011;41509;53.108;6.100;2024-03-02T02:00:21;3.92;;;1.67;;
55641;SDS011;41509;53.108;6.100;2024-03-02T02:02:49;3.10;;;1.50;;
55641;SDS011;41509;53.108;6.100;2024-03-02T02:05:16;2.15;;;1.15;;
55641;SDS011;41509;53.108;6.100;2024-03-02T02:07:43;2.17;;;1.10;;
55641;SDS011;41509;53.108;6.100;2024-03-02T02:10:12;2.03;;;1.20;;
55641;SDS011;41509;53.108;6.100;2024-03-02T02:12:38;4.85;;;1.55;;
55641;SDS011;41509;53.108;6.100;2024-03-02T02:15:26;3.75;;;1.38;;
55641;SDS011;41509;53.108;6.100;2024-03-02T02:17:51;2.22;;;1.30;;
55641;SDS011;41509;53.108;6.100;2024-03-02T02:20:17;3.25;;;1.50;;
55641;SDS011;41509;53.108;6.100;2024-03-02T02:23:00;2.42;;;0.95;;
55641;SDS011;41509;53.108;6.100;2024-03-02T02:25:27;2.47;;;1.40;;
55641;SDS011;41509;53.108;6.100;2024-03-02T02:27:54;3.28;;;1.55;;
55641;SDS011;41509;53.108;6.100;2024-03-02T02:30:21;2.58;;;1.38;;
55641;SDS011;41509;53.108;6.100;2024-03-02T02:32:54;2.83;;;1.10;;
55641;SDS011;41509;53.108;6.100;2024-03-02T02:35:20;3.05;;;1.27;;
55641;SDS011;41509;53.108;6.100;2024-03-02T02:37:46;1.97;;;0.93;;
55641;SDS011;41509;53.108;6.100;2024-03-02T02:40:13;3.08;;;1.08;;
55641;SDS011;41509;53.108;6.100;2024-03-02T02:42:39;1.98;;;1.17;;
55641;SDS011;41509;53.108;6.100;2024-03-02T02:45:07;2.42;;;1.20;;
55641;SDS011;41509;53.108;6.100;2024-03-02T02:47:33;3.75;;;1.33;;
55641;SDS011;41509;53.108;6.100;2024-03-02T02:50:00;3.58;;;1.58;;
55641;SDS011;41509;53.108;6.100;2024-03-02T02:52:31;2.72;;;1.30;;
55641;SDS011;41509;53.108;6.100;2024-03-02T02:55:01;3.55;;;1.52;;
55641;SDS011;41509;53.108;6.100;2024-03-02T02:57:28;4.30;;;1.67;;
55641;SDS011;41509;53.108;6.100;2024-03-02T02:59:56;5.25;;;2.08;;
55641;SDS011;41509;53.108;6.100;2024-03-02T03:02:22;2.90;;;1.30;;
55641;SDS011;41509;53.108;6.100;2024-03-02T03:04:48;2.30;;;1.17;;
55641;SDS011;41509;53.108;6.100;2024-03-02T03:07:13;3.73;;;1.67;;
55641;SDS011;41509;53.108;6.100;2024-03-02T03:09:41;3.43;;;1.30;;
55641;SDS011;41509;53.108;6.100;2024-03-02T03:12:07;3.60;;;1.30;;
55641;SDS011;41509;53.108;6.100;2024-03-02T03:14:33;4.03;;;1.83;;
55641;SDS011;41509;53.108;6.100;2024-03-02T03:16:58;3.03;;;1.77;;
55641;SDS011;41509;53.108;6.100;2024-03-02T03:19:24;3.03;;;1.23;;
55641;SDS011;41509;53.108;6.100;2024-03-02T03:21:49;6.10;;;1.50;;
55641;SDS011;41509;53.108;6.100;2024-03-02T03:24:15;2.47;;;1.50;;
55641;SDS011;41509;53.108;6.100;2024-03-02T03:26:41;2.43;;;1.60;;
55641;SDS011;41509;53.108;6.100;2024-03-02T03:29:06;11.00;;;1.53;;
55641;SDS011;41509;53.108;6.100;2024-03-02T03:31:32;4.50;;;1.63;;
55641;SDS011;41509;53.108;6.100;2024-03-02T03:33:57;4.03;;;1.40;;
55641;SDS011;41509;53.108;6.100;2024-03-02T03:36:23;6.57;;;1.77;;
55641;SDS011;41509;53.108;6.100;2024-03-02T03:38:49;3.50;;;1.37;;
55641;SDS011;41509;53.108;6.100;2024-03-02T03:41:14;2.17;;;1.27;;
55641;SDS011;41509;53.108;6.100;2024-03-02T03:43:40;4.83;;;1.40;;
55641;SDS011;41509;53.108;6.100;2024-03-02T03:46:08;4.55;;;1.58;;
55641;SDS011;41509;53.108;6.100;2024-03-02T03:48:34;4.30;;;1.47;;
55641;SDS011;41509;53.108;6.100;2024-03-02T03:51:00;2.88;;;1.48;;
55641;SDS011;41509;53.108;6.100;2024-03-02T03:53:25;4.33;;;1.47;;
55641;SDS011;41509;53.108;6.100;2024-03-02T03:55:53;3.42;;;1.50;;
55641;SDS011;41509;53.108;6.100;2024-03-02T03:58:19;3.13;;;1.30;;
55641;SDS011;41509;53.108;6.100;2024-03-02T04:00:46;4.78;;;1.45;;
55641;SDS011;41509;53.108;6.100;2024-03-02T04:03:14;3.55;;;1.40;;
55641;SDS011;41509;53.108;6.100;2024-03-02T04:05:40;2.57;;;1.50;;
55641;SDS011;41509;53.108;6.100;2024-03-02T04:08:05;4.17;;;1.70;;
55641;SDS011;41509;53.108;6.100;2024-03-02T04:10:31;4.27;;;1.67;;
55641;SDS011;41509;53.108;6.100;2024-03-02T04:12:59;4.80;;;1.83;;
55641;SDS011;41509;53.108;6.100;2024-03-02T04:15:24;3.50;;;1.50;;
55641;SDS011;41509;53.108;6.100;2024-03-02T04:17:50;5.00;;;1.70;;
55641;SDS011;41509;53.108;6.100;2024-03-02T04:20:15;3.17;;;1.40;;
55641;SDS011;41509;53.108;6.100;2024-03-02T04:22:41;3.60;;;1.70;;
55641;SDS011;41509;53.108;6.100;2024-03-02T04:25:07;4.03;;;1.40;;
55641;SDS011;41509;53.108;6.100;2024-03-02T04:27:33;4.38;;;2.00;;
55641;SDS011;41509;53.108;6.100;2024-03-02T04:29:58;3.87;;;1.60;;
55641;SDS011;41509;53.108;6.100;2024-03-02T04:32:25;2.25;;;1.30;;
55641;SDS011;41509;53.108;6.100;2024-03-02T04:34:54;3.47;;;1.77;;
55641;SDS011;41509;53.108;6.100;2024-03-02T04:37:19;2.83;;;1.57;;
55641;SDS011;41509;53.108;6.100;2024-03-02T04:39:45;3.10;;;1.70;;
55641;SDS011;41509;53.108;6.100;2024-03-02T04:42:13;4.38;;;1.30;;
55641;SDS011;41509;53.108;6.100;2024-03-02T04:44:39;4.23;;;1.20;;
55641;SDS011;41509;53.108;6.100;2024-03-02T04:47:05;5.10;;;1.10;;
55641;SDS011;41509;53.108;6.100;2024-03-02T04:49:30;2.60;;;1.10;;
55641;SDS011;41509;53.108;6.100;2024-03-02T04:51:56;2.50;;;1.07;;
55641;SDS011;41509;53.108;6.100;2024-03-02T04:54:22;0.98;;;0.80;;
55641;SDS011;41509;53.108;6.100;2024-03-02T04:56:47;1.43;;;1.17;;
55641;SDS011;41509;53.108;6.100;2024-03-02T04:59:16;0.68;;;0.40;;
55641;SDS011;41509;53.108;6.100;2024-03-02T05:04:12;1.50;;;0.52;;
55641;SDS011;41509;53.108;6.100;2024-03-02T05:06:40;0.77;;;0.30;;
55641;SDS011;41509;53.108;6.100;2024-03-02T05:09:06;0.87;;;0.30;;
55641;SDS011;41509;53.108;6.100;2024-03-02T05:11:33;0.55;;;0.30;;
55641;SDS011;41509;53.108;6.100;2024-03-02T05:14:07;0.80;;;0.25;;
55641;SDS011;41509;53.108;6.100;2024-03-02T05:16:33;0.28;;;0.13;;
55641;SDS011;41509;53.108;6.100;2024-03-02T05:19:08;1.60;;;0.30;;
55641;SDS011;41509;53.108;6.100;2024-03-02T05:21:34;0.50;;;0.10;;
55641;SDS011;41509;53.108;6.100;2024-03-02T05:24:00;0.10;;;0.10;;
55641;SDS011;41509;53.108;6.100;2024-03-02T05:26:25;1.47;;;0.27;;
55641;SDS011;41509;53.108;6.100;2024-03-02T05:28:52;0.85;;;0.30;;
55641;SDS011;41509;53.108;6.100;2024-03-02T05:31:18;0.70;;;0.20;;
55641;SDS011;41509;53.108;6.100;2024-03-02T05:33:43;0.97;;;0.10;;
55641;SDS011;41509;53.108;6.100;2024-03-02T05:36:11;0.50;;;0.20;;
55641;SDS011;41509;53.108;6.100;2024-03-02T05:38:40;0.47;;;0.17;;
55641;SDS011;41509;53.108;6.100;2024-03-02T05:41:06;0.45;;;0.20;;
55641;SDS011;41509;53.108;6.100;2024-03-02T05:43:31;0.50;;;0.23;;
55641;SDS011;41509;53.108;6.100;2024-03-02T05:45:57;0.97;;;0.30;;
55641;SDS011;41509;53.108;6.100;2024-03-02T05:48:23;0.40;;;0.20;;
55641;SDS011;41509;53.108;6.100;2024-03-02T05:50:51;0.63;;;0.33;;
55641;SDS011;41509;53.108;6.100;2024-03-02T05:53:17;0.60;;;0.30;;
55641;SDS011;41509;53.108;6.100;2024-03-02T05:55:42;0.57;;;0.13;;
55641;SDS011;41509;53.108;6.100;2024-03-02T05:58:10;1.05;;;0.10;;
55641;SDS011;41509;53.108;6.100;2024-03-02T06:00:58;0.40;;;0.20;;
55641;SDS011;41509;53.108;6.100;2024-03-02T06:03:24;1.17;;;0.27;;
55641;SDS011;41509;53.108;6.100;2024-03-02T06:05:50;1.55;;;0.40;;
55641;SDS011;41509;53.108;6.100;2024-03-02T06:08:16;2.22;;;0.32;;
55641;SDS011;41509;53.108;6.100;2024-03-02T06:10:43;1.10;;;0.30;;
55641;SDS011;41509;53.108;6.100;2024-03-02T06:13:08;0.52;;;0.22;;
55641;SDS011;41509;53.108;6.100;2024-03-02T06:15:34;2.23;;;0.30;;
55641;SDS011;41509;53.108;6.100;2024-03-02T06:18:01;0.80;;;0.43;;
55641;SDS011;41509;53.108;6.100;2024-03-02T06:20:26;1.50;;;0.37;;
55641;SDS011;41509;53.108;6.100;2024-03-02T06:22:52;0.63;;;0.40;;
55641;SDS011;41509;53.108;6.100;2024-03-02T06:25:18;0.40;;;0.23;;
55641;SDS011;41509;53.108;6.100;2024-03-02T06:27:43;0.57;;;0.20;;
55641;SDS011;41509;53.108;6.100;2024-03-02T06:30:09;1.03;;;0.37;;
55641;SDS011;41509;53.108;6.100;2024-03-02T06:32:35;1.65;;;0.30;;
55641;SDS011;41509;53.108;6.100;2024-03-02T06:35:01;1.13;;;0.40;;
55641;SDS011;41509;53.108;6.100;2024-03-02T06:37:26;0.13;;;0.10;;
55641;SDS011;41509;53.108;6.100;2024-03-02T06:39:52;1.30;;;0.40;;
55641;SDS011;41509;53.108;6.100;2024-03-02T06:42:17;0.30;;;0.30;;
55641;SDS011;41509;53.108;6.100;2024-03-02T06:44:43;0.97;;;0.27;;
55641;SDS011;41509;53.108;6.100;2024-03-02T06:47:09;0.87;;;0.50;;
55641;SDS011;41509;53.108;6.100;2024-03-02T06:49:34;0.57;;;0.30;;
55641;SDS011;41509;53.108;6.100;2024-03-02T06:52:00;0.32;;;0.30;;
55641;SDS011;41509;53.108;6.100;2024-03-02T06:54:26;0.87;;;0.40;;
55641;SDS011;41509;53.108;6.100;2024-03-02T06:56:51;1.13;;;0.50;;
55641;SDS011;41509;53.108;6.100;2024-03-02T06:59:17;0.30;;;0.13;;
55641;SDS011;41509;53.108;6.100;2024-03-02T07:01:45;0.70;;;0.33;;
55641;SDS011;41509;53.108;6.100;2024-03-02T07:04:10;0.93;;;0.35;;
55641;SDS011;41509;53.108;6.100;2024-03-02T07:06:36;0.60;;;0.33;;
55641;SDS011;41509;53.108;6.100;2024-03-02T07:09:02;0.63;;;0.30;;
55641;SDS011;41509;53.108;6.100;2024-03-02T07:11:30;0.47;;;0.30;;
55641;SDS011;41509;53.108;6.100;2024-03-02T07:13:55;0.20;;;0.20;;
55641;SDS011;41509;53.108;6.100;2024-03-02T07:16:21;0.37;;;0.23;;
55641;SDS011;41509;53.108;6.100;2024-03-02T07:18:46;0.37;;;0.20;;
55641;SDS011;41509;53.108;6.100;2024-03-02T07:21:16;5.60;;;0.40;;
55641;SDS011;41509;53.108;6.100;2024-03-02T07:26:08;0.45;;;0.30;;
55641;SDS011;41509;53.108;6.100;2024-03-02T07:28:34;0.73;;;0.33;;
55641;SDS011;41509;53.108;6.100;2024-03-02T07:31:00;2.40;;;0.30;;
55641;SDS011;41509;53.108;6.100;2024-03-02T07:33:27;1.00;;;0.40;;
55641;SDS011;41509;53.108;6.100;2024-03-02T07:35:53;3.50;;;0.40;;
55641;SDS011;41509;53.108;6.100;2024-03-02T07:38:20;1.77;;;0.40;;
55641;SDS011;41509;53.108;6.100;2024-03-02T07:40:46;3.22;;;0.80;;
55641;SDS011;41509;53.108;6.100;2024-03-02T07:43:15;1.88;;;0.40;;
55641;SDS011;41509;53.108;6.100;2024-03-02T07:45:42;1.13;;;0.40;;
55641;SDS011;41509;53.108;6.100;2024-03-02T07:48:10;1.40;;;0.40;;
55641;SDS011;41509;53.108;6.100;2024-03-02T07:50:36;1.73;;;0.30;;
55641;SDS011;41509;53.108;6.100;2024-03-02T07:53:02;0.85;;;0.55;;
55641;SDS011;41509;53.108;6.100;2024-03-02T07:55:29;1.38;;;0.60;;
55641;SDS011;41509;53.108;6.100;2024-03-02T07:57:55;1.95;;;1.00;;
55641;SDS011;41509;53.108;6.100;2024-03-02T08:00:27;2.78;;;0.50;;
55641;SDS011;41509;53.108;6.100;2024-03-02T08:02:55;1.95;;;0.52;;
55641;SDS011;41509;53.108;6.100;2024-03-02T08:05:21;4.00;;;0.60;;
55641;SDS011;41509;53.108;6.100;2024-03-02T08:07:47;1.90;;;0.40;;
55641;SDS011;41509;53.108;6.100;2024-03-02T08:10:13;0.50;;;0.30;;
55641;SDS011;41509;53.108;6.100;2024-03-02T08:12:39;0.73;;;0.52;;
55641;SDS011;41509;53.108;6.100;2024-03-02T08:15:05;3.10;;;1.00;;
55641;SDS011;41509;53.108;6.100;2024-03-02T08:17:31;0.82;;;0.52;;
55641;SDS011;41509;53.108;6.100;2024-03-02T08:19:56;1.97;;;0.47;;
55641;SDS011;41509;53.108;6.100;2024-03-02T08:22:23;1.85;;;0.63;;
55641;SDS011;41509;53.108;6.100;2024-03-02T08:24:51;4.35;;;1.15;;
55641;SDS011;41509;53.108;6.100;2024-03-02T08:27:17;3.87;;;0.93;;
55641;SDS011;41509;53.108;6.100;2024-03-02T08:29:43;2.37;;;0.83;;
55641;SDS011;41509;53.108;6.100;2024-03-02T08:32:08;7.03;;;1.13;;
55641;SDS011;41509;53.108;6.100;2024-03-02T08:34:34;1.60;;;1.10;;
55641;SDS011;41509;53.108;6.100;2024-03-02T08:37:09;1.23;;;0.57;;
55641;SDS011;41509;53.108;6.100;2024-03-02T08:39:34;1.90;;;0.53;;
55641;SDS011;41509;53.108;6.100;2024-03-02T08:42:00;1.90;;;0.80;;
55641;SDS011;41509;53.108;6.100;2024-03-02T08:44:25;1.40;;;0.53;;
55641;SDS011;41509;53.108;6.100;2024-03-02T08:46:51;2.67;;;0.80;;
55641;SDS011;41509;53.108;6.100;2024-03-02T08:49:17;2.37;;;0.57;;
55641;SDS011;41509;53.108;6.100;2024-03-02T08:51:42;3.80;;;0.63;;
55641;SDS011;41509;53.108;6.100;2024-03-02T08:54:19;1.15;;;0.57;;
55641;SDS011;41509;53.108;6.100;2024-03-02T08:56:48;1.52;;;0.60;;
55641;SDS011;41509;53.108;6.100;2024-03-02T08:59:17;1.42;;;0.75;;
55641;SDS011;41509;53.108;6.100;2024-03-02T09:01:43;3.03;;;0.80;;
55641;SDS011;41509;53.108;6.100;2024-03-02T09:04:10;2.25;;;1.00;;
55641;SDS011;41509;53.108;6.100;2024-03-02T09:06:36;2.20;;;0.87;;
55641;SDS011;41509;53.108;6.100;2024-03-02T09:09:02;1.77;;;0.57;;
55641;SDS011;41509;53.108;6.100;2024-03-02T09:11:28;2.50;;;0.70;;
55641;SDS011;41509;53.108;6.100;2024-03-02T09:13:54;2.28;;;0.98;;
55641;SDS011;41509;53.108;6.100;2024-03-02T09:16:20;2.22;;;0.70;;
55641;SDS011;41509;53.108;6.100;2024-03-02T09:18:46;2.60;;;0.70;;
55641;SDS011;41509;53.108;6.100;2024-03-02T09:21:12;5.65;;;1.13;;
55641;SDS011;41509;53.108;6.100;2024-03-02T09:23:38;1.80;;;0.90;;
55641;SDS011;41509;53.108;6.100;2024-03-02T09:26:05;4.43;;;0.70;;
55641;SDS011;41509;53.108;6.100;2024-03-02T09:28:31;3.77;;;0.87;;
55641;SDS011;41509;53.108;6.100;2024-03-02T09:30:56;2.77;;;0.60;;
55641;SDS011;41509;53.108;6.100;2024-03-02T09:33:22;3.03;;;0.93;;
55641;SDS011;41509;53.108;6.100;2024-03-02T09:35:47;1.20;;;0.40;;
55641;SDS011;41509;53.108;6.100;2024-03-02T09:38:13;1.55;;;0.50;;
55641;SDS011;41509;53.108;6.100;2024-03-02T09:40:40;2.13;;;0.50;;
55641;SDS011;41509;53.108;6.100;2024-03-02T09:43:07;1.23;;;0.40;;
55641;SDS011;41509;53.108;6.100;2024-03-02T09:45:32;1.92;;;0.75;;
55641;SDS011;41509;53.108;6.100;2024-03-02T09:47:59;0.88;;;0.40;;
55641;SDS011;41509;53.108;6.100;2024-03-02T09:50:27;2.67;;;0.57;;
55641;SDS011;41509;53.108;6.100;2024-03-02T09:52:53;3.37;;;0.60;;
55641;SDS011;41509;53.108;6.100;2024-03-02T09:55:19;2.58;;;0.70;;
55641;SDS011;41509;53.108;6.100;2024-03-02T09:57:53;1.77;;;0.52;;
55641;SDS011;41509;53.108;6.100;2024-03-02T10:00:19;2.67;;;0.50;;
55641;SDS011;41509;53.108;6.100;2024-03-02T10:02:44;0.90;;;0.43;;
55641;SDS011;41509;53.108;6.100;2024-03-02T10:05:22;3.08;;;0.80;;
55641;SDS011;41509;53.108;6.100;2024-03-02T10:08:02;0.90;;;0.40;;
55641;SDS011;41509;53.108;6.100;2024-03-02T10:10:38;2.13;;;0.50;;
55641;SDS011;41509;53.108;6.100;2024-03-02T10:13:08;4.60;;;0.50;;
55641;SDS011;41509;53.108;6.100;2024-03-02T10:15:41;1.77;;;0.47;;
55641;SDS011;41509;53.108;6.100;2024-03-02T10:18:10;1.63;;;0.60;;
55641;SDS011;41509;53.108;6.100;2024-03-02T10:20:36;6.03;;;0.57;;
55641;SDS011;41509;53.108;6.100;2024-03-02T10:23:13;0.68;;;0.38;;
55641;SDS011;41509;53.108;6.100;2024-03-02T10:25:42;3.10;;;0.40;;
55641;SDS011;41509;53.108;6.100;2024-03-02T10:28:09;0.88;;;0.40;;
55641;SDS011;41509;53.108;6.100;2024-03-02T10:30:35;1.27;;;0.43;;
55641;SDS011;41509;53.108;6.100;2024-03-02T10:33:01;1.13;;;0.50;;
55641;SDS011;41509;53.108;6.100;2024-03-02T10:37:53;2.35;;;0.40;;
55641;SDS011;41509;53.108;6.100;2024-03-02T10:40:22;2.83;;;0.55;;
55641;SDS011;41509;53.108;6.100;2024-03-02T10:42:48;1.52;;;0.50;;
55641;SDS011;41509;53.108;6.100;2024-03-02T10:45:18;0.68;;;0.40;;
55641;SDS011;41509;53.108;6.100;2024-03-02T10:47:46;1.50;;;0.30;;
55641;SDS011;41509;53.108;6.100;2024-03-02T10:50:12;3.33;;;0.70;;
55641;SDS011;41509;53.108;6.100;2024-03-02T10:52:38;2.33;;;0.60;;
55641;SDS011;41509;53.108;6.100;2024-03-02T10:55:04;1.55;;;0.32;;
55641;SDS011;41509;53.108;6.100;2024-03-02T10:57:38;1.98;;;0.60;;
55641;SDS011;41509;53.108;6.100;2024-03-02T11:00:08;2.85;;;0.60;;
55641;SDS011;41509;53.108;6.100;2024-03-02T11:02:40;1.23;;;0.50;;
55641;SDS011;41509;53.108;6.100;2024-03-02T11:05:12;2.03;;;0.47;;
55641;SDS011;41509;53.108;6.100;2024-03-02T11:07:46;3.53;;;0.40;;
55641;SDS011;41509;53.108;6.100;2024-03-02T11:10:12;2.30;;;0.40;;
55641;SDS011;41509;53.108;6.100;2024-03-02T11:12:38;1.40;;;0.73;;
55641;SDS011;41509;53.108;6.100;2024-03-02T11:15:12;3.70;;;0.70;;
55641;SDS011;41509;53.108;6.100;2024-03-02T11:17:44;2.58;;;0.60;;
55641;SDS011;41509;53.108;6.100;2024-03-02T11:20:11;1.23;;;0.55;;
55641;SDS011;41509;53.108;6.100;2024-03-02T11:22:37;2.78;;;0.82;;
55641;SDS011;41509;53.108;6.100;2024-03-02T11:25:03;2.65;;;0.80;;
55641;SDS011;41509;53.108;6.100;2024-03-02T11:33:01;3.20;;;0.50;;
55641;SDS011;41509;53.108;6.100;2024-03-02T11:35:34;1.70;;;0.50;;
55641;SDS011;41509;53.108;6.100;2024-03-02T11:38:06;2.10;;;0.57;;
55641;SDS011;41509;53.108;6.100;2024-03-02T11:40:32;0.98;;;0.47;;
55641;SDS011;41509;53.108;6.100;2024-03-02T11:43:01;1.23;;;0.57;;
55641;SDS011;41509;53.108;6.100;2024-03-02T11:45:27;3.33;;;0.82;;
55641;SDS011;41509;53.108;6.100;2024-03-02T11:47:54;3.30;;;0.40;;
55641;SDS011;41509;53.108;6.100;2024-03-02T11:52:58;1.20;;;0.45;;
55641;SDS011;41509;53.108;6.100;2024-03-02T11:55:24;5.93;;;0.80;;
55641;SDS011;41509;53.108;6.100;2024-03-02T11:57:51;1.52;;;0.50;;
55641;SDS011;41509;53.108;6.100;2024-03-02T12:00:18;1.63;;;0.20;;
55641;SDS011;41509;53.108;6.100;2024-03-02T12:02:47;2.90;;;0.40;;
55641;SDS011;41509;53.108;6.100;2024-03-02T12:05:26;3.03;;;0.50;;
55641;SDS011;41509;53.108;6.100;2024-03-02T12:07:59;1.60;;;0.55;;
55641;SDS011;41509;53.108;6.100;2024-03-02T12:10:26;2.58;;;0.30;;
55641;SDS011;41509;53.108;6.100;2024-03-02T12:12:58;2.88;;;0.40;;
55641;SDS011;41509;53.108;6.100;2024-03-02T12:15:29;2.05;;;0.40;;
55641;SDS011;41509;53.108;6.100;2024-03-02T12:17:56;2.42;;;0.77;;
55641;SDS011;41509;53.108;6.100;2024-03-02T12:20:26;3.40;;;0.40;;
55641;SDS011;41509;53.108;6.100;2024-03-02T12:22:54;2.60;;;0.40;;
55641;SDS011;41509;53.108;6.100;2024-03-02T12:25:22;2.20;;;0.73;;
55641;SDS011;41509;53.108;6.100;2024-03-02T12:27:56;2.10;;;0.65;;
55641;SDS011;41509;53.108;6.100;2024-03-02T12:30:23;1.00;;;0.43;;
55641;SDS011;41509;53.108;6.100;2024-03-02T12:32:49;1.52;;;0.50;;
55641;SDS011;41509;53.108;6.100;2024-03-02T12:35:15;1.70;;;0.35;;
55641;SDS011;41509;53.108;6.100;2024-03-02T12:37:46;4.18;;;0.57;;
55641;SDS011;41509;53.108;6.100;2024-03-02T12:40:17;3.55;;;0.85;;
55641;SDS011;41509;53.108;6.100;2024-03-02T12:42:45;2.40;;;0.40;;
55641;SDS011;41509;53.108;6.100;2024-03-02T12:45:11;3.50;;;0.43;;
55641;SDS011;41509;53.108;6.100;2024-03-02T12:47:40;1.83;;;0.35;;
55641;SDS011;41509;53.108;6.100;2024-03-02T12:50:07;3.38;;;0.70;;
55641;SDS011;41509;53.108;6.100;2024-03-02T12:52:33;2.78;;;0.40;;
55641;SDS011;41509;53.108;6.100;2024-03-02T12:55:03;3.20;;;0.85;;
55641;SDS011;41509;53.108;6.100;2024-03-02T12:57:30;1.75;;;0.30;;
55641;SDS011;41509;53.108;6.100;2024-03-02T12:59:58;1.73;;;0.50;;
55641;SDS011;41509;53.108;6.100;2024-03-02T13:02:34;1.98;;;0.45;;
55641;SDS011;41509;53.108;6.100;2024-03-02T13:07:26;1.92;;;0.50;;
55641;SDS011;41509;53.108;6.100;2024-03-02T13:09:52;1.75;;;0.40;;
55641;SDS011;41509;53.108;6.100;2024-03-02T13:12:20;2.13;;;0.30;;
55641;SDS011;41509;53.108;6.100;2024-03-02T13:14:53;1.25;;;0.68;;
55641;SDS011;41509;53.108;6.100;2024-03-02T13:17:19;2.28;;;1.10;;
55641;SDS011;41509;53.108;6.100;2024-03-02T13:19:57;2.80;;;0.50;;
55641;SDS011;41509;53.108;6.100;2024-03-02T13:22:29;2.10;;;0.60;;
55641;SDS011;41509;53.108;6.100;2024-03-02T13:24:54;2.20;;;0.50;;
55641;SDS011;41509;53.108;6.100;2024-03-02T13:27:20;1.47;;;0.53;;
55641;SDS011;41509;53.108;6.100;2024-03-02T13:29:49;4.22;;;0.50;;
55641;SDS011;41509;53.108;6.100;2024-03-02T13:32:19;2.40;;;0.28;;
55641;SDS011;41509;53.108;6.100;2024-03-02T13:34:48;4.40;;;1.40;;
55641;SDS011;41509;53.108;6.100;2024-03-02T13:37:17;3.08;;;0.90;;
55641;SDS011;41509;53.108;6.100;2024-03-02T13:39:47;2.55;;;0.55;;
55641;SDS011;41509;53.108;6.100;2024-03-02T13:42:13;1.20;;;0.40;;
55641;SDS011;41509;53.108;6.100;2024-03-02T13:44:40;3.65;;;0.63;;
55641;SDS011;41509;53.108;6.100;2024-03-02T13:47:10;2.30;;;0.40;;
55641;SDS011;41509;53.108;6.100;2024-03-02T13:49:36;0.98;;;0.35;;
55641;SDS011;41509;53.108;6.100;2024-03-02T13:52:03;2.45;;;0.57;;
55641;SDS011;41509;53.108;6.100;2024-03-02T13:54:38;2.05;;;0.45;;
55641;SDS011;41509;53.108;6.100;2024-03-02T13:57:05;2.15;;;0.65;;
55641;SDS011;41509;53.108;6.100;2024-03-02T13:59:32;2.13;;;0.63;;
55641;SDS011;41509;53.108;6.100;2024-03-02T14:04:24;1.60;;;0.50;;
55641;SDS011;41509;53.108;6.100;2024-03-02T14:06:49;1.70;;;0.70;;
55641;SDS011;41509;53.108;6.100;2024-03-02T14:09:15;3.30;;;1.20;;
55641;SDS011;41509;53.108;6.100;2024-03-02T14:11:40;6.40;;;1.93;;
55641;SDS011;41509;53.108;6.100;2024-03-02T14:14:06;3.07;;;1.33;;
55641;SDS011;41509;53.108;6.100;2024-03-02T14:16:32;9.80;;;2.22;;
55641;SDS011;41509;53.108;6.100;2024-03-02T14:18:57;5.10;;;1.50;;
55641;SDS011;41509;53.108;6.100;2024-03-02T14:21:24;3.97;;;1.63;;
55641;SDS011;41509;53.108;6.100;2024-03-02T14:23:49;3.40;;;1.52;;
55641;SDS011;41509;53.108;6.100;2024-03-02T14:26:15;6.82;;;1.70;;
55641;SDS011;41509;53.108;6.100;2024-03-02T14:28:41;2.38;;;1.00;;
55641;SDS011;41509;53.108;6.100;2024-03-02T14:31:09;2.10;;;0.88;;
55641;SDS011;41509;53.108;6.100;2024-03-02T14:33:38;2.47;;;0.82;;
55641;SDS011;41509;53.108;6.100;2024-03-02T14:38:31;6.22;;;2.45;;
55641;SDS011;41509;53.108;6.100;2024-03-02T14:40:57;3.97;;;1.17;;
55641;SDS011;41509;53.108;6.100;2024-03-02T14:43:23;1.90;;;1.15;;
55641;SDS011;41509;53.108;6.100;2024-03-02T14:45:49;7.80;;;1.38;;
55641;SDS011;41509;53.108;6.100;2024-03-02T14:48:18;7.47;;;2.47;;
55641;SDS011;41509;53.108;6.100;2024-03-02T14:50:43;6.28;;;2.83;;
55641;SDS011;41509;53.108;6.100;2024-03-02T14:53:09;7.55;;;2.15;;
55641;SDS011;41509;53.108;6.100;2024-03-02T14:55:37;7.38;;;3.20;;
55641;SDS011;41509;53.108;6.100;2024-03-02T14:58:03;7.43;;;2.83;;
55641;SDS011;41509;53.108;6.100;2024-03-02T15:00:28;7.28;;;3.88;;
55641;SDS011;41509;53.108;6.100;2024-03-02T15:02:57;5.20;;;3.05;;
55641;SDS011;41509;53.108;6.100;2024-03-02T15:05:23;3.75;;;2.72;;
55641;SDS011;41509;53.108;6.100;2024-03-02T15:07:51;7.70;;;4.22;;
55641;SDS011;41509;53.108;6.100;2024-03-02T15:10:17;10.20;;;4.60;;
55641;SDS011;41509;53.108;6.100;2024-03-02T15:12:43;27.33;;;12.70;;
55641;SDS011;41509;53.108;6.100;2024-03-02T15:15:09;15.20;;;8.07;;
55641;SDS011;41509;53.108;6.100;2024-03-02T15:17:39;6.78;;;3.10;;
55641;SDS011;41509;53.108;6.100;2024-03-02T15:20:04;7.05;;;4.07;;
55641;SDS011;41509;53.108;6.100;2024-03-02T15:22:32;6.32;;;3.40;;
55641;SDS011;41509;53.108;6.100;2024-03-02T15:24:58;6.15;;;3.28;;